createdAt,value
2016-11-05T00:00:52.094Z,11.45
2016-11-05T00:01:51.795Z,11.43
2016-11-05T00:02:52.147Z,11.35
2016-11-05T00:03:52.147Z,11.3
2016-11-05T00:04:51.855Z,11.35
2016-11-05T00:05:52.187Z,11.35
2016-11-05T00:06:51.892Z,11.36
2016-11-05T00:07:52.541Z,11.29
2016-11-05T00:08:51.925Z,11.26
2016-11-05T00:09:52.258Z,11.27
2016-11-05T00:10:52.282Z,11.18
2016-11-05T00:11:52.298Z,11.26
2016-11-05T00:12:52.317Z,11.3
2016-11-05T00:13:52.648Z,11.29
2016-11-05T00:14:52.348Z,11.27
2016-11-05T00:15:52.366Z,11.36
2016-11-05T00:16:52.393Z,11.27
2016-11-05T00:17:52.401Z,11.35
2016-11-05T00:18:52.103Z,11.26
2016-11-05T00:19:52.450Z,11.29
2016-11-05T00:20:52.202Z,11.23
2016-11-05T00:21:52.476Z,11.22
2016-11-05T00:22:52.507Z,11.29
2016-11-05T00:23:52.518Z,11.27
2016-11-05T00:24:52.847Z,11.25
2016-11-05T00:25:52.549Z,11.29
2016-11-05T00:26:52.573Z,11.35
2016-11-05T00:27:52.276Z,11.29
2016-11-05T00:28:52.293Z,11.33
2016-11-05T00:29:52.936Z,11.41
2016-11-05T00:30:52.327Z,11.4
2016-11-05T00:31:52.675Z,11.41
2016-11-05T00:32:52.675Z,11.36
2016-11-05T00:33:52.697Z,11.41
2016-11-05T00:34:52.732Z,11.41
2016-11-05T00:35:52.742Z,11.4
2016-11-05T00:36:52.749Z,11.4
2016-11-05T00:37:52.788Z,11.41
2016-11-05T00:38:52.469Z,11.37
2016-11-05T00:39:52.804Z,11.51
2016-11-05T00:40:53.141Z,11.48
2016-11-05T00:41:52.855Z,11.5
2016-11-05T00:42:52.858Z,11.52
2016-11-05T00:43:53.196Z,11.52
2016-11-05T00:44:52.896Z,11.48
2016-11-05T00:45:53.237Z,11.59
2016-11-05T00:46:52.619Z,11.5
2016-11-05T00:47:52.952Z,11.59
2016-11-05T00:48:52.985Z,11.52
2016-11-05T00:49:52.990Z,11.55
2016-11-05T00:50:53.025Z,11.45
2016-11-05T00:51:53.343Z,11.55
2016-11-05T00:52:53.360Z,11.5
2016-11-05T00:53:52.744Z,11.66
2016-11-05T00:54:52.767Z,11.62
2016-11-05T00:55:53.108Z,11.62
2016-11-05T00:56:53.452Z,11.66
2016-11-05T00:57:53.457Z,11.72
2016-11-05T00:58:53.474Z,11.68
2016-11-05T00:59:52.860Z,11.69
2016-11-05T01:00:53.191Z,11.7
2016-11-05T01:01:53.525Z,11.62
2016-11-05T01:02:53.236Z,11.72
2016-11-05T01:03:53.244Z,11.72
2016-11-05T01:04:53.579Z,11.83
2016-11-05T01:05:53.302Z,11.88
2016-11-05T01:06:53.624Z,12.04
2016-11-05T01:07:53.010Z,11.97
2016-11-05T01:08:53.365Z,11.95
2016-11-05T01:09:53.355Z,12.09
2016-11-05T01:10:53.058Z,12.06
2016-11-05T01:11:53.760Z,12.07
2016-11-05T01:12:53.446Z,12.22
2016-11-05T01:13:53.434Z,12.2
2016-11-05T01:14:53.132Z,12.22
2016-11-05T01:15:53.469Z,12.24
2016-11-05T01:16:53.171Z,12.24
2016-11-05T01:17:53.518Z,12.28
2016-11-05T01:18:53.538Z,12.22
2016-11-05T01:19:53.235Z,12.37
2016-11-05T01:20:53.565Z,12.47
2016-11-05T01:21:53.579Z,12.46
2016-11-05T01:22:53.918Z,12.4
2016-11-05T01:23:53.312Z,12.4
2016-11-05T01:24:53.678Z,12.37
2016-11-05T01:25:53.335Z,12.35
2016-11-05T01:26:53.676Z,12.32
2016-11-05T01:27:54.013Z,12.37
2016-11-05T01:28:54.065Z,12.37
2016-11-05T01:29:53.415Z,12.36
2016-11-05T01:30:53.749Z,12.32
2016-11-05T01:31:54.084Z,12.36
2016-11-05T01:32:53.787Z,12.28
2016-11-05T01:33:53.487Z,12.31
2016-11-05T01:34:54.142Z,12.36
2016-11-05T01:35:53.522Z,12.22
2016-11-05T01:36:53.560Z,12.27
2016-11-05T01:37:53.573Z,12.24
2016-11-05T01:38:53.895Z,12.35
2016-11-05T01:39:53.918Z,12.22
2016-11-05T01:40:53.635Z,12.32
2016-11-05T01:41:54.274Z,12.25
2016-11-05T01:42:53.676Z,12.29
2016-11-05T01:43:53.690Z,12.42
2016-11-05T01:44:53.694Z,12.31
2016-11-05T01:45:54.046Z,12.36
2016-11-05T01:46:53.736Z,12.28
2016-11-05T01:47:53.755Z,12.32
2016-11-05T01:48:54.084Z,12.35
2016-11-05T01:49:54.112Z,12.31
2016-11-05T01:50:54.151Z,12.24
2016-11-05T01:51:54.146Z,12.35
2016-11-05T01:52:54.479Z,12.37
2016-11-05T01:53:54.208Z,12.35
2016-11-05T01:54:53.898Z,12.35
2016-11-05T01:55:54.222Z,12.46
2016-11-05T01:56:54.241Z,12.37
2016-11-05T01:57:54.268Z,12.49
2016-11-05T01:58:54.283Z,12.46
2016-11-05T01:59:54.291Z,12.45
2016-11-05T02:00:54.313Z,12.45
2016-11-05T02:01:54.020Z,12.43
2016-11-05T02:02:54.362Z,12.43
2016-11-05T02:03:54.378Z,12.46
2016-11-05T02:04:54.387Z,12.39
2016-11-05T02:05:54.721Z,12.37
2016-11-05T02:06:54.154Z,12.45
2016-11-05T02:07:54.445Z,12.55
2016-11-05T02:08:54.779Z,12.54
2016-11-05T02:09:54.166Z,12.61
2016-11-05T02:10:54.501Z,12.58
2016-11-05T02:11:54.532Z,12.58
2016-11-05T02:12:54.545Z,12.6
2016-11-05T02:13:54.568Z,12.58
2016-11-05T02:14:54.582Z,12.73
2016-11-05T02:15:54.908Z,12.7
2016-11-05T02:16:54.333Z,12.78
2016-11-05T02:17:54.316Z,12.78
2016-11-05T02:18:54.650Z,12.76
2016-11-05T02:19:54.675Z,12.76
2016-11-05T02:20:54.418Z,12.78
2016-11-05T02:21:55.027Z,12.73
2016-11-05T02:22:55.075Z,12.8
2016-11-05T02:23:54.771Z,12.79
2016-11-05T02:24:54.447Z,12.75
2016-11-05T02:25:54.470Z,12.76
2016-11-05T02:26:54.834Z,12.76
2016-11-05T02:27:55.140Z,12.72
2016-11-05T02:28:54.842Z,12.7
2016-11-05T02:29:54.556Z,12.76
2016-11-05T02:30:55.194Z,12.7
2016-11-05T02:31:54.902Z,12.8
2016-11-05T02:32:54.599Z,12.86
2016-11-05T02:33:55.305Z,12.9
2016-11-05T02:34:54.964Z,12.94
2016-11-05T02:35:54.974Z,12.93
2016-11-05T02:36:54.994Z,12.9
2016-11-05T02:37:55.012Z,12.91
2016-11-05T02:38:54.721Z,12.87
2016-11-05T02:39:54.739Z,12.85
2016-11-05T02:40:55.071Z,12.86
2016-11-05T02:41:55.110Z,12.83
2016-11-05T02:42:55.118Z,12.94
2016-11-05T02:43:55.445Z,12.9
2016-11-05T02:44:55.153Z,12.95
2016-11-05T02:45:55.164Z,12.95
2016-11-05T02:46:55.180Z,12.95
2016-11-05T02:47:55.514Z,12.97
2016-11-05T02:48:55.218Z,12.91
2016-11-05T02:49:54.949Z,12.95
2016-11-05T02:50:54.955Z,13.01
2016-11-05T02:51:55.274Z,13
2016-11-05T02:52:54.984Z,13.05
2016-11-05T02:53:55.661Z,13.08
2016-11-05T02:54:55.019Z,13.08
2016-11-05T02:55:55.708Z,13.01
2016-11-05T02:56:55.703Z,13.03
2016-11-05T02:57:55.080Z,12.97
2016-11-05T02:58:55.409Z,12.93
2016-11-05T02:59:55.151Z,12.98
2016-11-05T03:00:55.447Z,12.97
2016-11-05T03:01:55.487Z,12.98
2016-11-05T03:02:55.490Z,13
2016-11-05T03:03:55.195Z,13.04
2016-11-05T03:04:55.546Z,13.03
2016-11-05T03:05:55.577Z,13.01
2016-11-05T03:06:55.877Z,13.08
2016-11-05T03:07:56.169Z,13.12
2016-11-05T03:08:55.951Z,13.12
2016-11-05T03:09:55.830Z,13.13
2016-11-05T03:10:56.394Z,13.01
2016-11-05T03:11:56.765Z,13.05
2016-11-05T03:12:55.365Z,13.03
2016-11-05T03:13:55.386Z,13.08
2016-11-05T03:14:56.034Z,13.13
2016-11-05T03:15:55.761Z,13.12
2016-11-05T03:16:56.297Z,13.16
2016-11-05T03:17:55.937Z,13.12
2016-11-05T03:18:56.152Z,13.18
2016-11-05T03:19:55.932Z,13.13
2016-11-05T03:20:55.518Z,13.11
2016-11-05T03:21:55.853Z,13.08
2016-11-05T03:22:56.207Z,13.01
2016-11-05T03:23:55.577Z,13.09
2016-11-05T03:24:55.913Z,13.08
2016-11-05T03:25:55.624Z,13.05
2016-11-05T03:26:55.997Z,13.08
2016-11-05T03:27:56.007Z,13.18
2016-11-05T03:28:55.990Z,13.11
2016-11-05T03:29:55.697Z,13.3
2016-11-05T03:30:55.711Z,13.28
2016-11-05T03:31:55.764Z,13.15
2016-11-05T03:32:55.748Z,13.12
2016-11-05T03:33:56.084Z,13.05
2016-11-05T03:34:56.428Z,13.05
2016-11-05T03:35:56.123Z,13.05
2016-11-05T03:36:56.170Z,13.09
2016-11-05T03:37:56.171Z,13.09
2016-11-05T03:38:56.186Z,13.12
2016-11-05T03:39:56.526Z,13.18
2016-11-05T03:40:56.220Z,13.13
2016-11-05T03:41:56.251Z,13.15
2016-11-05T03:42:55.967Z,13.12
2016-11-05T03:43:55.959Z,13.16
2016-11-05T03:44:56.293Z,13.16
2016-11-05T03:45:55.999Z,13.16
2016-11-05T03:46:56.346Z,13.13
2016-11-05T03:47:56.353Z,13.22
2016-11-05T03:48:56.064Z,13.28
2016-11-05T03:49:56.398Z,13.19
2016-11-05T03:50:56.735Z,13.2
2016-11-05T03:51:56.434Z,13.15
2016-11-05T03:52:56.479Z,13.28
2016-11-05T03:53:56.499Z,13.23
2016-11-05T03:54:56.499Z,13.23
2016-11-05T03:55:56.554Z,13.25
2016-11-05T03:56:56.248Z,13.22
2016-11-05T03:57:56.237Z,13.28
2016-11-05T03:58:56.572Z,13.3
2016-11-05T03:59:56.589Z,13.23
2016-11-05T04:00:56.631Z,13.16
2016-11-05T04:01:56.644Z,13.16
2016-11-05T04:02:56.662Z,13.09
2016-11-05T04:03:56.355Z,13.01
2016-11-05T04:04:56.685Z,12.95
2016-11-05T04:05:56.386Z,12.86
2016-11-05T04:06:56.409Z,12.94
2016-11-05T04:07:56.745Z,12.91
2016-11-05T04:08:56.773Z,12.94
2016-11-05T04:09:56.783Z,12.9
2016-11-05T04:10:57.117Z,12.98
2016-11-05T04:11:56.507Z,12.98
2016-11-05T04:12:57.159Z,12.97
2016-11-05T04:13:56.546Z,13.01
2016-11-05T04:14:56.875Z,13.03
2016-11-05T04:15:56.896Z,12.98
2016-11-05T04:16:56.923Z,12.98
2016-11-05T04:17:57.250Z,12.98
2016-11-05T04:18:57.274Z,13.03
2016-11-05T04:19:56.969Z,13
2016-11-05T04:20:56.996Z,13
2016-11-05T04:21:56.715Z,13.08
2016-11-05T04:22:57.053Z,13.05
2016-11-05T04:23:57.053Z,13.15
2016-11-05T04:24:56.753Z,13.16
2016-11-05T04:25:56.872Z,13.19
2016-11-05T04:26:57.425Z,13.09
2016-11-05T04:27:57.124Z,13.16
2016-11-05T04:28:57.147Z,13.27
2016-11-05T04:29:57.492Z,13.3
2016-11-05T04:30:57.509Z,13.33
2016-11-05T04:31:56.922Z,13.35
2016-11-05T04:32:56.907Z,13.49
2016-11-05T04:33:56.928Z,13.42
2016-11-05T04:34:57.270Z,13.46
2016-11-05T04:35:57.607Z,13.46
2016-11-05T04:36:57.623Z,13.46
2016-11-05T04:37:57.320Z,13.39
2016-11-05T04:38:57.025Z,13.46
2016-11-05T04:39:57.040Z,13.46
2016-11-05T04:40:57.386Z,13.47
2016-11-05T04:41:57.399Z,13.42
2016-11-05T04:42:57.100Z,13.37
2016-11-05T04:43:57.756Z,13.41
2016-11-05T04:44:57.154Z,13.44
2016-11-05T04:45:57.473Z,13.35
2016-11-05T04:46:57.178Z,13.33
2016-11-05T04:47:57.513Z,13.35
2016-11-05T04:48:57.536Z,13.3
2016-11-05T04:49:57.575Z,13.3
2016-11-05T04:50:57.268Z,13.31
2016-11-05T04:51:57.593Z,13.42
2016-11-05T04:52:57.926Z,13.38
2016-11-05T04:53:57.318Z,13.49
2016-11-05T04:54:57.965Z,13.35
2016-11-05T04:55:57.672Z,13.33
2016-11-05T04:56:57.688Z,13.47
2016-11-05T04:57:57.395Z,13.47
2016-11-05T04:58:57.427Z,13.46
2016-11-05T04:59:58.061Z,13.49
2016-11-05T05:00:57.769Z,13.5
2016-11-05T05:01:57.802Z,13.5
2016-11-05T05:02:57.494Z,13.5
2016-11-05T05:03:57.826Z,13.49
2016-11-05T05:04:57.856Z,13.56
2016-11-05T05:05:57.551Z,13.6
2016-11-05T05:06:57.889Z,13.57
2016-11-05T05:07:57.583Z,13.63
2016-11-05T05:08:58.236Z,13.68
2016-11-05T05:09:57.662Z,13.71
2016-11-05T05:10:57.645Z,13.65
2016-11-05T05:11:58.295Z,13.62
2016-11-05T05:12:58.016Z,13.59
2016-11-05T05:13:58.023Z,13.63
2016-11-05T05:14:58.038Z,13.7
2016-11-05T05:15:58.074Z,13.7
2016-11-05T05:16:58.083Z,13.49
2016-11-05T05:17:58.094Z,13.56
2016-11-05T05:18:58.125Z,13.52
2016-11-05T05:19:57.822Z,13.42
2016-11-05T05:20:57.837Z,13.44
2016-11-05T05:21:58.173Z,13.27
2016-11-05T05:22:57.880Z,13.49
2016-11-05T05:23:58.544Z,13.28
2016-11-05T05:24:58.551Z,13.3
2016-11-05T05:25:58.566Z,13.33
2016-11-05T05:26:58.274Z,13.47
2016-11-05T05:27:57.976Z,13.31
2016-11-05T05:28:58.309Z,13.3
2016-11-05T05:29:58.326Z,13.31
2016-11-05T05:30:58.030Z,13.38
2016-11-05T05:31:58.368Z,13.23
2016-11-05T05:32:58.384Z,13.25
2016-11-05T05:33:58.757Z,13.12
2016-11-05T05:34:58.112Z,13.19
2016-11-05T05:35:58.451Z,13.15
2016-11-05T05:36:58.461Z,13.23
2016-11-05T05:37:58.485Z,13.23
2016-11-05T05:38:58.502Z,13.28
2016-11-05T05:39:58.524Z,13.33
2016-11-05T05:40:58.857Z,13.31
2016-11-05T05:41:58.617Z,13.28
2016-11-05T05:42:58.266Z,13.33
2016-11-05T05:43:58.284Z,13.31
2016-11-05T05:44:58.937Z,13.33
2016-11-05T05:45:58.320Z,13.3
2016-11-05T05:46:58.659Z,13.33
2016-11-05T05:47:58.675Z,13.37
2016-11-05T05:48:58.693Z,13.3
2016-11-05T05:49:58.401Z,13.28
2016-11-05T05:50:58.418Z,13.3
2016-11-05T05:51:59.074Z,13.28
2016-11-05T05:52:58.455Z,13.38
2016-11-05T05:53:58.793Z,13.42
2016-11-05T05:54:58.808Z,13.47
2016-11-05T05:55:58.563Z,13.46
2016-11-05T05:56:59.169Z,13.52
2016-11-05T05:57:58.555Z,13.47
2016-11-05T05:58:58.897Z,13.49
2016-11-05T05:59:59.268Z,13.41
2016-11-05T06:00:58.932Z,13.44
2016-11-05T06:01:58.946Z,13.33
2016-11-05T06:02:59.282Z,13.25
2016-11-05T06:03:58.980Z,13.18
2016-11-05T06:04:58.689Z,13.19
2016-11-05T06:05:59.019Z,13.27
2016-11-05T06:06:59.039Z,13.37
2016-11-05T06:07:58.755Z,13.3
2016-11-05T06:08:59.079Z,13.39
2016-11-05T06:09:59.098Z,13.37
2016-11-05T06:10:59.117Z,13.47
2016-11-05T06:11:59.175Z,13.47
2016-11-05T06:12:59.156Z,13.54
2016-11-05T06:13:58.858Z,13.54
2016-11-05T06:14:58.982Z,13.59
2016-11-05T06:15:59.217Z,13.5
2016-11-05T06:16:59.548Z,13.56
2016-11-05T06:17:59.251Z,13.49
2016-11-05T06:18:59.278Z,13.52
2016-11-05T06:19:59.636Z,13.49
2016-11-05T06:20:58.996Z,13.49
2016-11-05T06:21:59.340Z,13.52
2016-11-05T06:22:59.034Z,13.44
2016-11-05T06:23:59.378Z,13.44
2016-11-05T06:24:59.704Z,13.44
2016-11-05T06:25:59.410Z,13.42
2016-11-05T06:26:59.437Z,13.49
2016-11-05T06:27:59.449Z,13.41
2016-11-05T06:28:59.462Z,13.35
2016-11-05T06:29:59.521Z,13.47
2016-11-05T06:30:59.193Z,13.33
2016-11-05T06:31:59.216Z,13.31
2016-11-05T06:32:59.546Z,13.27
2016-11-05T06:33:59.253Z,13.35
2016-11-05T06:34:59.268Z,13.28
2016-11-05T06:35:59.597Z,13.22
2016-11-05T06:36:59.624Z,13.27
2016-11-05T06:37:59.342Z,13.28
2016-11-05T06:38:59.669Z,13.22
2016-11-05T06:39:59.673Z,13.13
2016-11-05T06:40:59.698Z,13.27
2016-11-05T06:41:59.399Z,13.33
2016-11-05T06:42:59.436Z,13.27
2016-11-05T06:44:00.065Z,13.3
2016-11-05T06:44:59.465Z,13.3
2016-11-05T06:45:59.787Z,13.31
2016-11-05T06:46:59.812Z,13.35
2016-11-05T06:47:59.516Z,13.33
2016-11-05T06:48:59.847Z,13.3
2016-11-05T06:49:59.869Z,13.47
2016-11-05T06:51:00.273Z,13.35
2016-11-05T06:51:59.929Z,13.33
2016-11-05T06:52:59.922Z,13.3
2016-11-05T06:53:59.940Z,13.33
2016-11-05T06:54:59.962Z,13.28
2016-11-05T06:55:59.670Z,13.3
2016-11-05T06:57:00.004Z,13.33
2016-11-05T06:58:00.360Z,13.3
2016-11-05T06:59:00.044Z,13.27
2016-11-05T07:00:00.060Z,13.27
2016-11-05T07:01:00.393Z,13.18
2016-11-05T07:01:59.778Z,13.18
2016-11-05T07:02:59.801Z,13.03
2016-11-05T07:03:59.817Z,13.18
2016-11-05T07:05:00.471Z,13.09
2016-11-05T07:06:00.518Z,13.04
2016-11-05T07:06:59.890Z,13.04
2016-11-05T07:07:59.903Z,13.12
2016-11-05T07:09:00.234Z,13.27
2016-11-05T07:10:00.562Z,13.28
2016-11-05T07:11:00.581Z,13.31
2016-11-05T07:11:59.968Z,13.39
2016-11-05T07:13:00.007Z,13.39
2016-11-05T07:14:00.330Z,13.5
2016-11-05T07:15:00.662Z,13.47
2016-11-05T07:16:00.363Z,13.49
2016-11-05T07:17:00.064Z,13.59
2016-11-05T07:18:00.425Z,13.49
2016-11-05T07:19:00.103Z,13.47
2016-11-05T07:20:00.434Z,13.49
2016-11-05T07:21:00.790Z,13.47
2016-11-05T07:22:00.511Z,13.59
2016-11-05T07:23:00.812Z,13.6
2016-11-05T07:24:00.515Z,13.59
2016-11-05T07:25:00.220Z,13.72
2016-11-05T07:26:00.554Z,13.6
2016-11-05T07:27:00.572Z,13.7
2016-11-05T07:28:00.286Z,13.63
2016-11-05T07:29:00.612Z,13.7
2016-11-05T07:30:00.627Z,13.74
2016-11-05T07:31:00.334Z,13.79
2016-11-05T07:32:00.983Z,13.79
2016-11-05T07:33:00.704Z,13.83
2016-11-05T07:34:00.397Z,13.87
2016-11-05T07:35:00.727Z,13.77
2016-11-05T07:36:00.760Z,13.74
2016-11-05T07:37:01.085Z,13.86
2016-11-05T07:38:00.786Z,13.81
2016-11-05T07:39:00.488Z,13.77
2016-11-05T07:40:00.828Z,13.83
2016-11-05T07:41:01.163Z,13.83
2016-11-05T07:42:00.578Z,13.78
2016-11-05T07:43:00.889Z,13.78
2016-11-05T07:44:01.221Z,13.78
2016-11-05T07:45:00.920Z,13.81
2016-11-05T07:46:00.938Z,13.92
2016-11-05T07:47:01.294Z,13.89
2016-11-05T07:48:00.987Z,13.97
2016-11-05T07:49:01.311Z,14.04
2016-11-05T07:50:01.017Z,14.07
2016-11-05T07:51:01.067Z,14.05
2016-11-05T07:52:01.370Z,13.99
2016-11-05T07:53:01.076Z,14.11
2016-11-05T07:54:01.097Z,14.05
2016-11-05T07:55:01.431Z,14.08
2016-11-05T07:56:00.819Z,14.15
2016-11-05T07:57:01.471Z,14.18
2016-11-05T07:58:01.220Z,14.18
2016-11-05T07:59:01.193Z,14.2
2016-11-05T08:00:01.211Z,14.2
2016-11-05T08:01:00.913Z,14.17
2016-11-05T08:02:00.969Z,14.1
2016-11-05T08:03:00.955Z,14.11
2016-11-05T08:04:01.320Z,14.05
2016-11-05T08:05:01.315Z,14.07
2016-11-05T08:06:01.333Z,14.12
2016-11-05T08:07:01.033Z,14.1
2016-11-05T08:08:01.053Z,14.15
2016-11-05T08:09:01.078Z,14.07
2016-11-05T08:10:01.095Z,13.99
2016-11-05T08:11:01.429Z,14.14
2016-11-05T08:12:01.130Z,14.07
2016-11-05T08:13:01.157Z,14.08
2016-11-05T08:14:01.172Z,14.07
2016-11-05T08:15:01.193Z,14.2
2016-11-05T08:16:01.528Z,14.17
2016-11-05T08:17:01.871Z,14.25
2016-11-05T08:18:01.568Z,14.4
2016-11-05T08:19:01.585Z,14.35
2016-11-05T08:20:01.608Z,14.45
2016-11-05T08:21:01.624Z,14.54
2016-11-05T08:22:01.964Z,14.59
2016-11-05T08:23:01.983Z,14.65
2016-11-05T08:24:01.719Z,14.58
2016-11-05T08:25:01.706Z,14.51
2016-11-05T08:26:02.044Z,14.54
2016-11-05T08:27:01.437Z,14.51
2016-11-05T08:28:02.084Z,14.47
2016-11-05T08:29:01.788Z,14.65
2016-11-05T08:30:01.809Z,14.6
2016-11-05T08:31:01.527Z,14.6
2016-11-05T08:32:02.165Z,14.58
2016-11-05T08:33:02.186Z,14.63
2016-11-05T08:34:01.890Z,14.58
2016-11-05T08:35:01.907Z,14.59
2016-11-05T08:36:01.632Z,14.58
2016-11-05T08:37:01.955Z,14.63
2016-11-05T08:38:01.969Z,14.77
2016-11-05T08:39:01.992Z,14.72
2016-11-05T08:40:02.012Z,14.73
2016-11-05T08:41:02.060Z,14.79
2016-11-05T08:42:02.053Z,14.82
2016-11-05T08:43:02.070Z,14.84
2016-11-05T08:44:02.417Z,14.89
2016-11-05T08:45:01.824Z,14.84
2016-11-05T08:46:02.132Z,14.91
2016-11-05T08:47:02.150Z,14.88
2016-11-05T08:48:02.178Z,14.96
2016-11-05T08:49:02.197Z,14.91
2016-11-05T08:50:02.530Z,14.78
2016-11-05T08:51:02.234Z,14.86
2016-11-05T08:52:02.285Z,14.85
2016-11-05T08:53:02.276Z,14.72
2016-11-05T08:54:01.979Z,14.72
2016-11-05T08:55:02.318Z,14.6
2016-11-05T08:56:02.024Z,14.73
2016-11-05T08:57:02.039Z,14.73
2016-11-05T08:58:02.060Z,14.62
2016-11-05T08:59:02.084Z,14.72
2016-11-05T09:00:02.425Z,14.72
2016-11-05T09:01:02.752Z,14.69
2016-11-05T09:02:02.141Z,14.7
2016-11-05T09:03:02.475Z,14.72
2016-11-05T09:04:02.214Z,14.7
2016-11-05T09:05:02.838Z,14.79
2016-11-05T09:06:02.224Z,14.82
2016-11-05T09:07:02.874Z,14.82
2016-11-05T09:08:02.580Z,14.78
2016-11-05T09:09:02.283Z,14.89
2016-11-05T09:10:02.616Z,14.88
2016-11-05T09:11:02.642Z,14.86
2016-11-05T09:12:02.974Z,14.91
2016-11-05T09:13:02.996Z,14.88
2016-11-05T09:14:02.388Z,14.92
2016-11-05T09:15:03.035Z,14.89
2016-11-05T09:16:02.746Z,14.88
2016-11-05T09:17:02.761Z,14.85
2016-11-05T09:18:02.465Z,14.86
2016-11-05T09:19:02.490Z,14.88
2016-11-05T09:20:02.825Z,14.86
2016-11-05T09:21:02.846Z,14.86
2016-11-05T09:22:02.887Z,14.91
2016-11-05T09:23:03.199Z,14.88
2016-11-05T09:24:02.910Z,14.88
2016-11-05T09:25:02.946Z,14.94
2016-11-05T09:26:02.631Z,14.94
2016-11-05T09:27:02.967Z,14.92
2016-11-05T09:28:02.674Z,14.88
2016-11-05T09:29:03.324Z,14.85
2016-11-05T09:30:02.717Z,14.81
2016-11-05T09:31:02.738Z,14.85
2016-11-05T09:32:03.386Z,14.88
2016-11-05T09:33:02.775Z,15
2016-11-05T09:34:03.113Z,14.94
2016-11-05T09:35:02.816Z,15.06
2016-11-05T09:36:03.478Z,15.04
2016-11-05T09:37:02.862Z,15.03
2016-11-05T09:38:03.200Z,15.15
2016-11-05T09:39:02.903Z,15.28
2016-11-05T09:40:02.923Z,15.36
2016-11-05T09:41:02.940Z,15.35
2016-11-05T09:42:03.275Z,15.43
2016-11-05T09:43:03.311Z,15.37
2016-11-05T09:44:03.319Z,15.42
2016-11-05T09:45:03.656Z,15.55
2016-11-05T09:46:03.361Z,15.55
2016-11-05T09:47:03.384Z,15.55
2016-11-05T09:48:03.730Z,15.65
2016-11-05T09:49:03.420Z,15.7
2016-11-05T09:50:03.761Z,15.7
2016-11-05T09:51:03.466Z,15.8
2016-11-05T09:52:03.508Z,15.8
2016-11-05T09:53:03.824Z,15.77
2016-11-05T09:54:03.212Z,16
2016-11-05T09:55:03.236Z,16
2016-11-05T09:56:03.576Z,15.97
2016-11-05T09:57:03.611Z,15.94
2016-11-05T09:58:03.615Z,15.97
2016-11-05T09:59:03.319Z,15.98
2016-11-05T10:00:03.350Z,15.91
2016-11-05T10:01:03.367Z,15.92
2016-11-05T10:02:03.696Z,15.98
2016-11-05T10:03:03.725Z,15.98
2016-11-05T10:04:03.430Z,15.97
2016-11-05T10:05:03.445Z,15.97
2016-11-05T10:06:03.467Z,16.08
2016-11-05T10:07:03.489Z,16.13
2016-11-05T10:08:04.172Z,16.08
2016-11-05T10:09:03.532Z,16.04
2016-11-05T10:10:03.866Z,16.09
2016-11-05T10:11:03.574Z,16.17
2016-11-05T10:12:03.911Z,16.17
2016-11-05T10:13:04.251Z,16.23
2016-11-05T10:14:04.273Z,16.12
2016-11-05T10:15:03.662Z,16.16
2016-11-05T10:16:03.992Z,16.1
2016-11-05T10:17:04.022Z,16.26
2016-11-05T10:18:04.071Z,16.17
2016-11-05T10:19:04.062Z,16.16
2016-11-05T10:20:04.397Z,16.05
2016-11-05T10:21:03.787Z,16.04
2016-11-05T10:22:03.810Z,16.1
2016-11-05T10:23:04.166Z,16.16
2016-11-05T10:24:04.486Z,16.16
2016-11-05T10:25:04.187Z,16.17
2016-11-05T10:26:04.209Z,16.12
2016-11-05T10:27:04.545Z,16.15
2016-11-05T10:28:04.569Z,16.15
2016-11-05T10:29:04.589Z,16.13
2016-11-05T10:30:04.631Z,16.13
2016-11-05T10:31:04.635Z,16.12
2016-11-05T10:32:04.020Z,16.1
2016-11-05T10:33:04.673Z,16.02
2016-11-05T10:34:04.064Z,16.13
2016-11-05T10:35:04.412Z,16.04
2016-11-05T10:36:04.426Z,16.1
2016-11-05T10:37:04.446Z,16.09
2016-11-05T10:38:04.466Z,15.94
2016-11-05T10:39:04.483Z,15.9
2016-11-05T10:40:04.508Z,15.84
2016-11-05T10:41:04.211Z,15.82
2016-11-05T10:42:04.239Z,15.73
2016-11-05T10:43:04.255Z,15.88
2016-11-05T10:44:04.275Z,15.88
2016-11-05T10:45:04.948Z,15.95
2016-11-05T10:46:04.644Z,15.95
2016-11-05T10:47:04.356Z,15.94
2016-11-05T10:48:04.680Z,16.01
2016-11-05T10:49:04.701Z,16.04
2016-11-05T10:50:04.734Z,16.09
2016-11-05T10:51:04.428Z,16.1
2016-11-05T10:52:04.777Z,16.17
2016-11-05T10:53:04.788Z,16.21
2016-11-05T10:54:04.806Z,16.26
2016-11-05T10:55:04.511Z,16.33
2016-11-05T10:56:04.861Z,16.33
2016-11-05T10:57:04.881Z,16.41
2016-11-05T10:58:04.893Z,16.39
2016-11-05T10:59:05.226Z,16.36
2016-11-05T11:00:04.616Z,16.53
2016-11-05T11:01:05.275Z,16.53
2016-11-05T11:02:04.978Z,16.57
2016-11-05T11:03:04.709Z,16.49
2016-11-05T11:04:04.701Z,16.5
2016-11-05T11:05:04.728Z,16.51
2016-11-05T11:06:04.747Z,16.58
2016-11-05T11:07:04.770Z,16.57
2016-11-05T11:08:05.106Z,16.53
2016-11-05T11:09:04.809Z,16.65
2016-11-05T11:10:05.148Z,16.57
2016-11-05T11:11:05.167Z,16.66
2016-11-05T11:12:04.874Z,16.58
2016-11-05T11:13:04.899Z,16.65
2016-11-05T11:14:05.582Z,16.56
2016-11-05T11:15:04.945Z,16.58
2016-11-05T11:16:05.288Z,16.71
2016-11-05T11:17:05.305Z,16.66
2016-11-05T11:18:05.316Z,16.72
2016-11-05T11:19:05.028Z,16.74
2016-11-05T11:20:05.052Z,16.74
2016-11-05T11:21:05.701Z,16.72
2016-11-05T11:22:05.095Z,16.78
2016-11-05T11:23:05.430Z,16.79
2016-11-05T11:24:05.767Z,16.76
2016-11-05T11:25:05.790Z,16.75
2016-11-05T11:26:05.811Z,16.74
2016-11-05T11:27:05.518Z,16.71
2016-11-05T11:28:05.542Z,16.78
2016-11-05T11:29:05.244Z,16.76
2016-11-05T11:30:05.583Z,16.75
2016-11-05T11:31:05.288Z,16.71
2016-11-05T11:32:05.941Z,16.76
2016-11-05T11:33:05.648Z,16.75
2016-11-05T11:34:05.668Z,16.79
2016-11-05T11:35:05.374Z,16.79
2016-11-05T11:36:06.028Z,16.75
2016-11-05T11:37:05.733Z,16.79
2016-11-05T11:38:05.755Z,16.86
2016-11-05T11:39:05.784Z,16.81
2016-11-05T11:40:05.800Z,16.83
2016-11-05T11:41:05.857Z,16.76
2016-11-05T11:42:05.844Z,16.9
2016-11-05T11:43:05.875Z,16.9
2016-11-05T11:44:05.888Z,16.93
2016-11-05T11:45:05.940Z,16.89
2016-11-05T11:46:05.614Z,16.87
2016-11-05T11:47:05.644Z,16.89
2016-11-05T11:48:05.659Z,16.87
2016-11-05T11:49:05.680Z,16.86
2016-11-05T11:50:06.020Z,16.91
2016-11-05T11:51:06.354Z,16.89
2016-11-05T11:52:05.746Z,16.93
2016-11-05T11:53:05.767Z,16.9
2016-11-05T11:54:06.130Z,16.91
2016-11-05T11:55:05.977Z,16.75
2016-11-05T11:56:06.466Z,16.89
2016-11-05T11:57:05.864Z,16.89
2016-11-05T11:58:06.247Z,16.86
2016-11-05T11:59:05.929Z,16.89
2016-11-05T12:00:06.554Z,16.93
2016-11-05T12:01:06.576Z,16.87
2016-11-05T12:02:06.285Z,16.78
2016-11-05T12:03:06.305Z,16.87
2016-11-05T12:04:06.322Z,16.87
2016-11-05T12:05:06.380Z,16.93
2016-11-05T12:06:06.378Z,16.9
2016-11-05T12:07:06.389Z,16.9
2016-11-05T12:08:06.410Z,16.94
2016-11-05T12:09:06.433Z,16.89
2016-11-05T12:10:06.460Z,16.89
2016-11-05T12:11:06.163Z,16.79
2016-11-05T12:12:06.499Z,16.78
2016-11-05T12:13:06.208Z,16.72
2016-11-05T12:14:06.543Z,16.71
2016-11-05T12:15:06.922Z,16.64
2016-11-05T12:16:06.600Z,16.6
2016-11-05T12:17:06.927Z,16.61
2016-11-05T12:18:06.980Z,16.64
2016-11-05T12:19:06.649Z,16.58
2016-11-05T12:20:06.366Z,16.57
2016-11-05T12:21:06.385Z,16.64
2016-11-05T12:22:06.403Z,16.68
2016-11-05T12:23:06.421Z,16.64
2016-11-05T12:24:06.444Z,16.68
2016-11-05T12:25:06.465Z,16.57
2016-11-05T12:26:07.119Z,16.58
2016-11-05T12:27:07.174Z,16.56
2016-11-05T12:28:06.847Z,16.57
2016-11-05T12:29:06.557Z,16.46
2016-11-05T12:30:07.243Z,16.46
2016-11-05T12:31:06.598Z,16.43
2016-11-05T12:32:06.620Z,16.38
2016-11-05T12:33:07.303Z,16.41
2016-11-05T12:34:06.665Z,16.39
2016-11-05T12:35:06.703Z,16.33
2016-11-05T12:36:06.704Z,16.39
2016-11-05T12:37:07.044Z,16.28
2016-11-05T12:38:07.071Z,16.33
2016-11-05T12:39:07.084Z,16.38
2016-11-05T12:40:07.110Z,16.47
2016-11-05T12:41:07.131Z,16.46
2016-11-05T12:42:07.165Z,16.47
2016-11-05T12:43:06.861Z,16.46
2016-11-05T12:44:06.878Z,16.41
2016-11-05T12:45:07.224Z,16.41
2016-11-05T12:46:07.236Z,16.46
2016-11-05T12:47:06.952Z,16.51
2016-11-05T12:48:06.962Z,16.47
2016-11-05T12:49:07.302Z,16.41
2016-11-05T12:50:07.009Z,16.41
2016-11-05T12:51:07.341Z,16.43
2016-11-05T12:52:07.368Z,16.53
2016-11-05T12:53:07.700Z,16.58
2016-11-05T12:54:07.406Z,16.54
2016-11-05T12:55:07.308Z,16.61
2016-11-05T12:56:07.773Z,16.56